Terminal Aerodrome Forecast
Issued by NWS

Home | Current Version | Previous Version | Text Only | Print | Product List | Glossary On
Versions: 1 2 3 4 5 6 7 8 9 10 11 12
478
FTUS42 KGSP 272323
TAFGMU
TAF
KGMU 272323Z 2800/2824 16004KT P6SM FEW060
     FM280400 VRB03KT P6SM FEW250
     FM281600 10006KT P6SM FEW060 SCT150=

USA.gov is the U.S. government's official web portal to all federal, state and local government web resources and services.